Terminal Aerodrome Forecast
Issued by NWS

Home | Current Version | Previous Version | Text Only | Print | Product List | Glossary On
Versions: 1 2 3 4 5 6 7 8 9 10 11 12 13 14 15 16 17 18 19 20 21 22 23 24 25 26 27 28 29 30 31 32 33 34 35 36 37 38 39
961
FTUS43 KDVN 192322
TAFCID
TAF
KCID 192322Z 2000/2024 10006KT 1SM BR OVC004
      TEMPO 2000/2003 1/2SM -RADZ OVC002
     FM200400 10004KT 1/2SM -DZ FG OVC003
     FM200800 08003KT 1/4SM -DZ FG OVC002
     FM201600 12005KT 2SM BR OVC007=

USA.gov is the U.S. government's official web portal to all federal, state and local government web resources and services.